Strona główna
METAR-TAF:

METAR-TAF

Lotnisko :

Port lotniczy Dżakarta-Halim Perdanakusuma

Dżakarta Wschodnia, Indonezja

Szerokość geograficzna: 06-15-59S, Długość geograficzna: 106-53-28E, wysokość: 25 m

Aktualna obserwacja pogody

Raport powstał 2 godziny i 43 minut temu, godzina 12:00 UTC
Cisza
Temperatura 29°C
Wilgotność 74%
Ciśnienie 1008 hPa
Widzialność: 5000 m
Rozproszone chmury na wysokości 2000 ft
zmętnienie

METAR: WIHH 281200Z 00000KT 5000 HZ SCT020 29/24 Q1008 NOSIG

czas: 21:43 (14:43 UTC)

Prognoza

Raport powstał 3 godziny i 43 minut temu, godzina 11:00 UTC
Prognoza ważna od 28 godzina 12 UTC do 29 godzina 12 UTC
Wiatr 7 kt od północno-północny zachód
Widzialność: 6000 m
Rozproszone chmury na wysokości 2000 ft
Stopniowe zmiany
od 28 godzina 16 UTC do 28 godzina 18 UTC
Wiatr 3 kt od południowy zachód

TAF: WIHH 281100Z 2812/2912 33007KT 6000 SCT020 BECMG 2816/2818 23003KT

Obserwacja i prognoza pogody dla ponad 4000 lotnisk (raport METAR i TAF).

Dostępne stacje oznaczono żółtymi i czerwonymi punktami na mapie.

Najedź kursorem aby zobaczyć nazwę stacji.

Kliknij aby zobaczyć obserwacje i prognozy pogody.

Aby zmienić mapę: kliknij na zielony przycisk z czarnym krzyżykiem, aby powiększyć; na zielony przycisk z myślnikiem, aby pomniejszyć; na zielone strzałki, aby przejść do map sąsiednich.


METAR-TAF: